Latest Weather Observations for Yamba

IDN60801

Issued at 1:03 pm EST Saturday 1 October 2016 (issued every 30 minutes, with the page automatically refreshed every 10 minutes)

About weather observations | Map of weather stations | Latest weather observations for NSW | Other Formats
Station Details ID: 058012 Name: YAMBA PILOT STATION Lat: -29.43 Lon: 153.36 Height: 27.4 m
Data from the previous 72 hours. | See also: Recent months at Yamba
Date/Time
EST
Temp
°C
App
Temp
°C
Dew
Point
°C
Rel
Hum
%
Delta-T
°C
Wind Press
QNH
hPa
Press
MSL
hPa
Rain since
9am
mm
Dir  Spd
km/h
Gust
km/h
Spd
kts
Gust
kts
01/01:00pm 26.9 23.4 7.4 29 10.4 NW 15 20 8 11 1008.5 1008.5 0.0
01/12:30pm 26.5 23.1 7.5 30 10.1 NW 15 24 8 13 1008.7 1008.7 0.0
01/12:00pm 24.9 21.5 5.7 29 9.8 NNW 13 20 7 11 1009.3 1009.3 0.0
01/11:30am 24.8 21.1 6.5 31 9.5 NW 15 24 8 13 1009.9 1009.9 0.0
01/11:00am 23.9 20.7 6.7 33 8.9 NW 13 19 7 10 1010.7 1010.7 0.0
01/10:30am 23.0 19.1 5.4 32 8.8 NW 15 24 8 13 1011.2 1011.2 0.0
01/10:00am 22.2 18.8 6.0 35 8.2 NNW 13 19 7 10 1011.3 1011.3 0.0
01/09:30am 21.8 18.2 4.8 33 8.4 NW 13 19 7 10 1011.5 1011.5 0.0
01/09:00am 20.9 17.5 5.7 37 7.6 NNW 13 19 7 10 1011.7 1011.7 0.0
01/08:30am 20.1 17.1 6.1 40 7.0 NW 11 15 6 8 1011.8 1011.8 0.0
01/08:00am 18.7 16.1 6.2 44 6.2 NW 9 15 5 8 1011.7 1011.7 0.0
01/07:30am 16.5 13.9 6.3 51 5.0 WNW 9 13 5 7 1011.5 1011.5 0.0
01/07:00am 15.2 13.1 6.7 57 4.2 WNW 7 11 4 6 1011.3 1011.3 0.0
01/06:30am 13.6 11.0 6.0 60 3.6 NW 9 15 5 8 1011.0 1011.0 0.0
01/06:00am 11.8 9.7 6.7 71 2.4 NW 7 15 4 8 1010.5 1010.5 0.0
01/05:30am 11.7 9.1 6.2 69 2.6 NW 9 13 5 7 1010.1 1010.1 0.0
01/05:00am 11.8 8.6 5.2 64 3.0 WNW 11 15 6 8 1009.9 1009.9 0.0
01/04:30am 11.8 8.7 5.4 65 3.0 NW 11 17 6 9 1009.5 1009.5 0.0
01/04:00am 12.3 8.8 5.5 63 3.2 WNW 13 19 7 10 1009.2 1009.2 0.0
01/03:30am 12.1 8.7 5.9 66 2.9 NW 13 17 7 9 1008.8 1008.8 0.0
01/03:00am 12.3 9.3 5.9 65 3.0 NW 11 17 6 9 1008.6 1008.6 0.0
01/02:30am 12.1 10.0 6.6 69 2.6 NW 7 11 4 6 1008.6 1008.6 0.0
01/02:00am 12.7 10.2 6.7 67 2.9 NW 9 13 5 7 1008.6 1008.6 0.0
01/01:30am 12.4 9.8 6.0 65 3.0 NW 9 13 5 7 1008.6 1008.6 0.0
01/01:00am 12.3 9.8 6.6 68 2.7 WNW 9 11 5 6 1008.5 1008.5 0.0
01/12:30am 13.2 10.0 4.9 57 3.8 W 11 15 6 8 1008.4 1008.4 0.0
01/12:00am 13.1 10.8 5.8 61 3.4 NW 7 11 4 6 1008.4 1008.4 0.0
 
Date/Time
EST
Temp
°C
App
Temp
°C
Dew
Point
°C
Rel
Hum
%
Delta-T
°C
Wind Press
QNH
hPa
Press
MSL
hPa
Rain since
9am
mm
Dir  Spd
km/h
Gust
km/h
Spd
kts
Gust
kts
30/11:30pm 13.5 10.9 5.9 60 3.6 NW 9 15 5 8 1008.4 1008.4 0.0
30/11:00pm 13.4 10.6 5.1 57 3.9 NNW 9 13 5 7 1008.6 1008.6 0.0
30/10:30pm 13.7 10.7 4.3 53 4.3 NNW 9 13 5 7 1008.5 1008.5 0.0
30/10:00pm 14.1 11.2 4.7 53 4.4 NNW 9 13 5 7 1008.4 1008.4 0.0
30/09:30pm 14.9 12.1 5.1 52 4.6 NW 9 17 5 9 1008.4 1008.4 0.0
30/09:00pm 14.7 11.8 4.7 51 4.7 NW 9 13 5 7 1008.1 1008.1 0.0
30/08:30pm 15.3 12.4 2.5 42 5.7 WNW 7 11 4 6 1008.2 1008.2 0.0
30/08:00pm 16.1 12.8 2.5 40 6.1 W 9 13 5 7 1007.6 1007.6 0.0
30/07:30pm 16.3 13.4 2.7 40 6.2 W 7 11 4 6 1007.3 1007.3 0.0
30/07:00pm 17.4 13.9 3.3 39 6.5 W 11 17 6 9 1006.8 1006.8 0.0
30/06:30pm 18.2 13.3 1.7 33 7.4 WNW 17 24 9 13 1006.1 1006.1 0.0
30/06:00pm 18.8 13.5 1.8 32 7.7 WNW 19 32 10 17 1005.6 1005.6 0.0
30/05:30pm 19.5 13.6 1.5 30 8.2 WNW 22 37 12 20 1004.7 1004.7 0.0
30/05:00pm 20.8 15.4 2.6 30 8.6 WNW 20 32 11 17 1004.3 1004.3 0.0
30/04:30pm 21.4 13.8 0.6 25 9.4 WNW 30 43 16 23 1003.8 1003.8 0.0
30/04:09pm 22.2 14.6 0.7 24 9.8 WNW 30 48 16 26 1003.3 1003.3 0.0
30/04:00pm 22.4 14.6 1.4 25 9.8 WNW 32 48 17 26 1003.1 1003.1 0.0
30/03:30pm 23.1 15.6 1.5 24 10.1 WNW 30 48 16 26 1002.6 1002.6 0.0
30/03:00pm 23.5 16.0 1.2 23 10.4 W 30 50 16 27 1002.4 1002.4 0.0
30/02:30pm 23.7 16.5 0.7 22 10.6 W 28 46 15 25 1001.8 1001.8 0.0
30/02:07pm 23.7 16.6 1.4 23 10.4 W 28 46 15 25 1001.8 1001.8 0.0
30/02:00pm 24.4 18.1 1.3 22 10.9 W 24 41 13 22 1001.7 1001.7 0.0
30/01:43pm 24.4 17.5 2.5 24 10.5 WNW 28 46 15 25 1001.4 1001.4 0.0
30/01:30pm 24.7 18.6 2.8 24 10.6 WNW 24 37 13 20 1001.4 1001.4 0.0
30/01:00pm 25.1 19.8 4.8 27 10.3 WNW 22 39 12 21 1001.3 1001.3 0.0
30/12:30pm 24.9 18.8 3.0 24 10.7 WNW 24 39 13 21 1001.4 1001.4 0.0
30/12:00pm 24.7 19.7 3.4 25 10.5 NW 19 30 10 16 1001.6 1001.6 0.0
30/11:30am 23.6 17.4 1.9 24 10.2 WNW 24 39 13 21 1001.9 1001.9 0.0
30/11:00am 23.5 17.4 2.9 26 9.9 NW 24 35 13 19 1002.5 1002.5 0.0
30/10:30am 23.1 18.1 4.6 30 9.2 NW 20 35 11 19 1002.8 1002.8 0.0
30/10:00am 22.4 17.3 5.8 34 8.4 NW 22 35 12 19 1003.4 1003.4 0.0
30/09:30am 21.5 15.7 4.6 33 8.3 NW 24 39 13 21 1003.7 1003.7 0.0
30/09:00am 21.2 16.3 5.1 35 8.0 NW 20 32 11 17 1004.1 1004.1 0.0
30/08:30am 20.2 15.3 4.3 35 7.7 NW 19 30 10 16 1004.4 1004.4 0.0
30/08:00am 19.5 14.5 6.3 42 6.6 NW 22 32 12 17 1004.9 1004.9 0.0
30/07:30am 18.5 14.0 6.0 44 6.2 NW 19 26 10 14 1005.1 1005.1 0.0
30/07:00am 17.4 13.0 6.6 49 5.4 NW 19 28 10 15 1004.9 1004.9 0.0
30/06:30am 16.4 12.6 9.1 62 3.8 NW 19 26 10 14 1004.7 1004.7 0.0
30/06:00am 16.1 13.0 10.4 69 3.0 NW 17 22 9 12 1004.4 1004.4 0.0
30/05:30am 15.9 13.0 10.9 72 2.7 NW 17 28 9 15 1004.2 1004.2 0.0
30/05:00am 16.1 13.7 12.8 81 1.8 NW 17 22 9 12 1004.0 1004.0 0.0
30/04:30am 15.5 13.7 12.1 80 1.9 NNW 13 19 7 10 1003.6 1003.6 0.0
30/04:00am 15.8 13.8 11.6 76 2.3 NNW 13 17 7 9 1003.6 1003.6 0.0
30/03:30am 16.4 14.2 12.0 75 2.4 NNW 15 19 8 10 1003.6 1003.6 0.0
30/03:00am 16.9 15.1 13.4 80 2.0 NW 15 22 8 12 1003.8 1003.8 0.0
30/02:30am 17.0 15.8 13.9 82 1.8 NW 13 19 7 10 1003.9 1003.9 0.0
30/02:00am 17.1 16.2 13.6 80 2.0 WNW 11 17 6 9 1004.1 1004.1 0.0
30/01:30am 17.6 16.0 13.9 79 2.1 NW 15 19 8 10 1004.6 1004.6 0.0
30/01:00am 17.8 16.1 13.7 77 2.3 NW 15 20 8 11 1004.6 1004.6 0.0
30/12:30am 17.6 16.2 13.5 77 2.3 NW 13 19 7 10 1004.6 1004.6 0.0
30/12:00am 17.8 16.1 13.5 76 2.4 NNW 15 20 8 11 1004.7 1004.7 0.0
 
Date/Time
EST
Temp
°C
App
Temp
°C
Dew
Point
°C
Rel
Hum
%
Delta-T
°C
Wind Press
QNH
hPa
Press
MSL
hPa
Rain since
9am
mm
Dir  Spd
km/h
Gust
km/h
Spd
kts
Gust
kts
29/11:30pm 19.1 17.6 14.1 73 2.9 NW 15 20 8 11 1005.0 1005.0 0.0
29/11:00pm 19.0 16.7 13.0 68 3.4 NNW 17 24 9 13 1004.6 1004.6 0.0
29/10:30pm 18.5 15.8 12.9 70 3.1 NNW 19 26 10 14 1004.5 1004.5 0.0
29/10:00pm 18.5 15.7 13.1 71 3.1 NNW 20 28 11 15 1004.4 1004.4 0.0
29/09:30pm 18.5 16.6 12.9 70 3.1 NNW 15 22 8 12 1004.2 1004.2 0.0
29/09:00pm 18.5 15.5 12.0 66 3.6 NNW 19 26 10 14 1003.9 1003.9 0.0
29/08:30pm 18.6 15.6 11.9 65 3.7 NNW 19 26 10 14 1003.6 1003.6 0.0
29/08:00pm 18.6 16.3 11.9 65 3.7 NNW 15 22 8 12 1003.8 1003.8 0.0
29/07:30pm 19.1 16.1 11.9 63 4.0 NNW 19 28 10 15 1003.5 1003.5 0.0
29/07:00pm 19.5 15.9 12.0 62 4.2 NNW 22 35 12 19 1003.2 1003.2 0.0
29/06:30pm 19.9 15.9 11.9 60 4.4 NNW 24 39 13 21 1002.8 1002.8 0.0
29/06:00pm 20.2 15.9 12.2 60 4.5 NNW 26 44 14 24 1002.6 1002.6 0.0
29/05:30pm 21.0 17.2 12.4 58 4.9 NNW 24 39 13 21 1002.7 1002.7 0.0
29/05:00pm 22.1 19.3 12.6 55 5.4 NNW 19 35 10 19 1002.6 1002.6 0.0
29/04:30pm 23.0 20.3 12.9 53 5.8 NNW 19 28 10 15 1002.5 1002.5 0.0
29/04:00pm 23.2 20.8 13.9 56 5.5 NNW 19 26 10 14 1002.8 1002.8 0.0
29/03:30pm 22.5 19.1 13.6 57 5.2 NNW 24 37 13 20 1002.4 1002.4 0.0
29/03:00pm 21.2 17.0 13.4 61 4.5 NNW 28 46 15 25 1002.5 1002.5 0.0
29/02:59pm 21.3 17.1 13.5 61 4.5 NNW 28 46 15 25 1002.5 1002.5 0.0
29/02:30pm 23.3 20.4 12.9 52 6.0 NNW 20 35 11 19 1002.6 1002.6 0.0
29/02:00pm 23.9 18.8 13.2 51 6.2 NW 32 44 17 24 1002.8 1002.8 0.0
29/01:46pm 24.9 20.3 12.2 45 7.3 NW 28 46 15 25 1002.7 1002.7 0.0
29/01:30pm 26.8 23.4 12.5 41 8.3 NNW 22 35 12 19 1002.8 1002.8 0.0
29/01:00pm 26.4 20.5 10.5 37 8.9 NNW 32 44 17 24 1003.4 1003.4 0.0
29/12:30pm 24.1 19.5 9.7 40 7.9 NNW 24 37 13 20 1004.1 1004.1 0.0
29/12:20pm 23.8 20.0 11.2 45 7.1 NNW 22 46 12 25 1004.4 1004.4 0.0
29/12:18pm 23.5 19.7 9.9 42 7.4 NNW 20 46 11 25 1004.3 1004.3 0.0
29/12:00pm 23.4 23.3 16.0 63 4.5 N 11 19 6 10 1004.5 1004.5 0.0
29/11:30am 25.3 25.2 15.9 56 5.7 N 11 17 6 9 1004.7 1004.7 0.0
29/11:00am 23.7 22.6 14.4 56 5.5 N 13 26 7 14 1005.3 1005.3 0.0
29/10:30am 22.1 23.0 16.6 71 3.3 NNW 7 13 4 7 1005.8 1005.8 0.0
29/10:00am 20.9 21.0 15.4 71 3.3 NNW 9 17 5 9 1006.3 1006.3 0.0
29/09:30am 21.3 21.3 16.3 73 3.0 N 11 17 6 9 1006.7 1006.7 0.0
29/09:00am 20.0 19.9 16.0 78 2.4 N 11 19 6 10 1007.1 1007.1 0.0
29/08:30am 18.6 18.7 15.5 82 1.8 N 9 13 5 7 1007.6 1007.6 0.0
29/08:00am 16.9 16.5 14.0 83 1.7 NNW 9 11 5 6 1008.0 1008.0 0.0
29/07:30am 15.8 15.1 13.1 84 1.5 W 9 9 5 5 1008.5 1008.5 0.0
29/07:00am 15.6 14.9 13.3 86 1.3 W 9 13 5 7 1008.4 1008.4 0.0
29/06:30am 15.5 14.8 13.3 87 1.2 W 9 13 5 7 1008.2 1008.2 0.0
29/06:00am 15.3 15.0 13.2 87 1.2 W 7 9 4 5 1008.3 1008.3 0.0
29/05:30am 15.0 14.1 12.5 85 1.4 W 9 11 5 6 1008.2 1008.2 0.0
29/05:00am 15.5 14.7 13.0 85 1.4 W 9 9 5 5 1008.4 1008.4 0.0
29/04:30am 15.9 15.0 12.6 81 1.8 NW 9 11 5 6 1008.3 1008.3 0.0
29/04:00am 15.6 15.2 12.9 84 1.5 NW 7 13 4 7 1008.4 1008.4 0.0
29/03:30am 15.7 15.2 12.8 83 1.6 WNW 7 11 4 6 1009.0 1009.0 0.0
29/03:00am 15.7 14.7 12.3 80 1.9 W 9 11 5 6 1009.2 1009.2 0.0
29/02:30am 16.0 15.1 12.6 80 1.9 NW 9 13 5 7 1009.5 1009.5 0.0
29/02:00am 16.2 15.3 12.7 80 1.9 NW 9 13 5 7 1009.8 1009.8 0.0
29/01:30am 16.4 15.4 12.2 76 2.3 NNW 9 13 5 7 1010.0 1010.0 0.0
29/01:00am 16.8 15.5 12.5 76 2.4 NNW 11 15 6 8 1010.8 1010.8 0.0
29/12:30am 16.5 15.2 12.5 77 2.2 WNW 11 15 6 8 1011.4 1011.4 0.0
29/12:00am 16.7 15.8 12.5 76 2.3 NNW 9 11 5 6 1011.7 1011.7 0.0
 
Date/Time
EST
Temp
°C
App
Temp
°C
Dew
Point
°C
Rel
Hum
%
Delta-T
°C
Wind Press
QNH
hPa
Press
MSL
hPa
Rain since
9am
mm
Dir  Spd
km/h
Gust
km/h
Spd
kts
Gust
kts
28/11:30pm 17.0 16.5 12.5 75 2.5 NNW 7 11 4 6 1011.9 1011.9 0.0
28/11:00pm 16.9 16.3 12.2 74 2.6 NNW 7 11 4 6 1012.5 1012.4 0.0
28/10:30pm 16.9 15.8 12.0 73 2.7 NNW 9 13 5 7 1012.6 1012.5 0.0
28/10:00pm 17.3 16.7 12.2 72 2.8 NW 7 9 4 5 1012.8 1012.7 0.0
28/09:30pm 18.2 17.1 12.0 67 3.4 NNE 9 13 5 7 1012.9 1012.8 0.0
28/09:00pm 18.3 17.1 11.6 65 3.7 NNE 9 13 5 7 1013.0 1012.9 0.0
28/08:30pm 18.6 17.7 11.4 63 3.9 NE 7 13 4 7 1013.1 1013.0 0.0
28/08:00pm 18.5 17.3 11.6 64 3.8 NE 9 15 5 8 1012.9 1012.8 0.0
28/07:30pm 18.6 16.9 11.2 62 4.0 ENE 11 17 6 9 1012.7 1012.6 0.0
28/07:00pm 18.4 17.0 10.8 61 4.1 ENE 9 15 5 8 1012.6 1012.5 0.0
28/06:30pm 18.5 16.6 10.6 60 4.3 E 11 15 6 8 1012.3 1012.3 0.0
28/06:00pm 18.4 16.7 10.0 58 4.5 E 9 15 5 8 1012.5 1012.4 0.0
28/05:30pm 18.7 15.4 10.8 60 4.3 ESE 19 24 10 13 1011.7 1011.7 0.0
28/05:00pm 19.0 15.9 10.3 57 4.7 ESE 17 24 9 13 1011.5 1011.5 0.0
28/04:30pm 19.2 15.9 9.4 53 5.2 ESE 17 24 9 13 1011.4 1011.4 0.0
28/04:00pm 19.5 15.6 8.8 50 5.6 ESE 19 24 10 13 1011.2 1011.2 0.0
28/03:30pm 19.6 15.8 8.9 50 5.6 ESE 19 26 10 14 1011.2 1011.2 0.0
28/03:00pm 19.7 15.5 8.4 48 5.9 ESE 20 24 11 13 1011.3 1011.3 0.0
28/02:30pm 19.8 15.9 7.2 44 6.4 ESE 17 24 9 13 1011.8 1011.8 0.0
28/02:00pm 20.1 16.0 7.8 45 6.3 ESE 19 24 10 13 1012.2 1012.2 0.0
28/01:30pm 20.3 15.4 7.0 42 6.8 ESE 22 28 12 15 1012.5 1012.4 0.0

Other Formats:

Comma delimited format used in spreadsheet applications
http://www.bom.gov.au/fwo/IDN60801/IDN60801.94589.axf

JavaScript Object Notation format (JSON) in row-major order
http://www.bom.gov.au/fwo/IDN60801/IDN60801.94589.json